Time;durP1;ratioP1;P1;durP2;ratioP2;P2;SDS_P1;SDS_P2;PMS_P1;PMS_P2;Temp;Humidity;BMP_temperature;BMP_pressure;BME280_temperature;BME280_humidity;BME280_pressure;Samples;Min_cycle;Max_cycle;Signal;HPM_P1;HPM_P2
2022/11/24 00:01:29;;;;;;;56.67;21.58;;;;;;;6.26;100.00;92068.44;5111217;28;20051;-73
2022/11/24 00:03:58;;;;;;;53.25;20.33;;;;;;;6.11;100.00;92059.34;5110624;28;20175;-73
2022/11/24 00:06:25;;;;;;;55.72;19.98;;;;;;;6.18;100.00;92074.59;5110992;28;20056;-73
2022/11/24 00:08:53;;;;;;;42.90;16.63;;;;;;;6.06;100.00;92066.09;5110456;28;20044;-73
2022/11/24 00:11:21;;;;;;;46.65;17.90;;;;;;;6.01;100.00;92069.22;5110365;28;20637;-73
2022/11/24 00:13:48;;;;;;;83.22;28.52;;;;;;;6.03;100.00;92071.59;5110751;28;20105;-73
2022/11/24 00:16:17;;;;;;;98.60;33.13;;;;;;;5.83;100.00;92055.44;5110736;28;20112;-73
2022/11/24 00:18:48;;;;;;;89.15;30.95;;;;;;;5.98;100.00;92083.16;5109629;28;20048;-73
2022/11/24 00:21:15;;;;;;;120.63;40.65;;;;;;;5.95;100.00;92073.41;5110658;28;20451;-73
2022/11/24 00:23:42;;;;;;;102.03;37.28;;;;;;;5.93;100.00;92074.59;5110630;28;20111;-73
2022/11/24 00:26:11;;;;;;;78.18;29.52;;;;;;;5.92;100.00;92088.34;5110286;28;20051;-73
2022/11/24 00:28:39;;;;;;;57.05;20.85;;;;;;;5.79;100.00;92071.38;5087120;28;20044;-73
2022/11/24 00:31:15;;;;;;;38.05;15.23;;;;;;;5.84;100.00;92091.91;5069432;28;20208;-73
2022/11/24 00:33:42;;;;;;;35.03;14.00;;;;;;;5.75;100.00;92087.06;5069083;28;20044;-74
2022/11/24 00:36:10;;;;;;;31.13;13.75;;;;;;;5.72;100.00;92087.50;5069162;28;20475;-73
2022/11/24 00:38:36;;;;;;;32.03;14.77;;;;;;;5.69;100.00;92085.34;5069779;28;20566;-73
2022/11/24 00:41:03;;;;;;;27.42;11.93;;;;;;;5.57;100.00;92080.16;5081809;28;20048;-73
2022/11/24 00:43:30;;;;;;;30.98;12.95;;;;;;;5.59;100.00;92080.72;5110404;28;20052;-73
2022/11/24 00:45:57;;;;;;;28.88;12.90;;;;;;;5.57;100.00;92085.25;5110294;28;20039;-73
2022/11/24 00:48:23;;;;;;;26.50;12.98;;;;;;;5.48;100.00;92083.94;5110235;28;20052;-72
2022/11/24 00:50:58;;;;;;;30.58;12.70;;;;;;;5.47;100.00;92088.25;5110243;28;20105;-72
2022/11/24 00:53:26;;;;;;;21.48;10.45;;;;;;;5.43;100.00;92082.03;5108538;28;20450;-73
2022/11/24 00:55:54;;;;;;;16.13;6.70;;;;;;;5.40;100.00;92072.22;5084339;28;20386;-73
2022/11/24 00:58:21;;;;;;;12.20;4.32;;;;;;;5.40;100.00;92079.06;5109711;28;20047;-73
2022/11/24 01:00:48;;;;;;;8.18;3.95;;;;;;;5.40;100.00;92074.78;5110070;28;20120;-73
2022/11/24 01:03:16;;;;;;;7.53;3.10;;;;;;;5.44;100.00;92082.78;5110174;28;20455;-73
2022/11/24 01:05:43;;;;;;;6.28;3.20;;;;;;;5.45;100.00;92094.53;5109846;28;20130;-73
2022/11/24 01:08:10;;;;;;;9.95;5.05;;;;;;;5.43;100.00;92093.97;5110080;28;20471;-73
2022/11/24 01:10:38;;;;;;;12.38;6.50;;;;;;;5.49;100.00;92095.69;5081645;28;20456;-73
2022/11/24 01:13:05;;;;;;;12.73;6.10;;;;;;;5.47;100.00;92100.22;5109869;28;20047;-73
2022/11/24 01:15:35;;;;;;;10.65;5.35;;;;;;;5.42;100.00;92105.13;5109647;28;20048;-73
2022/11/24 01:18:02;;;;;;;9.85;4.40;;;;;;;5.31;100.00;92094.63;5109943;28;20109;-73
2022/11/24 01:20:28;;;;;;;7.75;3.20;;;;;;;5.32;100.00;92103.03;5109756;28;20497;-73
2022/11/24 01:22:55;;;;;;;7.50;2.72;;;;;;;5.22;100.00;92090.75;5109918;28;20049;-73
2022/11/24 01:25:22;;;;;;;8.80;2.92;;;;;;;5.32;100.00;92101.25;5109804;28;20116;-73
2022/11/24 01:27:50;;;;;;;11.80;3.40;;;;;;;5.31;100.00;92092.06;5109512;28;20500;-73
2022/11/24 01:30:17;;;;;;;8.23;3.30;;;;;;;5.45;100.00;92097.06;5112405;28;20047;-73
2022/11/24 01:32:44;;;;;;;9.23;3.28;;;;;;;5.45;100.00;92102.97;5114046;28;20039;-73
2022/11/24 01:35:10;;;;;;;8.48;2.92;;;;;;;5.48;100.00;92099.97;5113713;28;20055;-73
2022/11/24 01:37:37;;;;;;;6.88;2.90;;;;;;;5.49;100.00;92100.78;5099479;28;20048;-73
2022/11/24 01:40:05;;;;;;;6.10;2.80;;;;;;;5.53;100.00;92091.75;5113447;28;20122;-73
2022/11/24 01:42:40;;;;;;;5.15;3.00;;;;;;;5.54;100.00;92093.31;5114010;28;20105;-73
2022/11/24 01:45:29;;;;;;;9.02;3.10;;;;;;;5.58;100.00;92098.75;5113535;28;20047;-73
2022/11/24 01:47:57;;;;;;;5.82;3.20;;;;;;;5.64;100.00;92094.63;5113384;28;20051;-73
2022/11/24 01:50:24;;;;;;;6.20;3.33;;;;;;;5.70;100.00;92097.09;5113821;28;20408;-73
2022/11/24 01:52:53;;;;;;;9.27;4.60;;;;;;;5.75;100.00;92091.41;5113438;28;20047;-74
2022/11/24 01:55:22;;;;;;;8.13;3.88;;;;;;;5.82;100.00;92091.34;5084832;28;20113;-73
2022/11/24 01:57:51;;;;;;;8.68;3.78;;;;;;;5.80;100.00;92083.13;5113228;28;20120;-73
2022/11/24 02:00:19;;;;;;;11.07;4.43;;;;;;;5.86;100.00;92092.47;5113442;28;20459;-73
2022/11/24 02:02:47;;;;;;;12.18;5.40;;;;;;;5.98;100.00;92102.78;5113276;28;20096;-73
2022/11/24 02:05:21;;;;;;;16.30;6.85;;;;;;;5.94;100.00;92096.53;5104835;28;20106;-73
2022/11/24 02:07:49;;;;;;;15.52;6.63;;;;;;;6.03;100.00;92099.63;5094367;28;20047;-73
2022/11/24 02:10:16;;;;;;;14.90;6.50;;;;;;;6.05;100.00;92106.09;5112909;28;20093;-73
2022/11/24 02:12:46;;;;;;;9.35;4.18;;;;;;;6.07;100.00;92104.09;5113164;28;20457;-73
2022/11/24 02:15:15;;;;;;;7.10;2.33;;;;;;;5.98;100.00;92087.50;5113115;28;20047;-73
2022/11/24 02:17:41;;;;;;;7.38;2.35;;;;;;;6.11;100.00;92105.25;5080303;28;20425;-72
2022/11/24 02:20:12;;;;;;;4.88;2.05;;;;;;;6.11;100.00;92101.94;5071976;28;20052;-72
2022/11/24 02:22:47;;;;;;;6.90;1.75;;;;;;;6.13;100.00;92105.03;5071836;28;20071;-72
2022/11/24 02:25:23;;;;;;;6.00;2.00;;;;;;;6.15;100.00;92103.84;5071668;28;20044;-72
2022/11/24 02:27:53;;;;;;;6.50;2.55;;;;;;;6.19;100.00;92108.50;5071615;28;20044;-72
2022/11/24 02:30:20;;;;;;;8.25;2.10;;;;;;;6.20;100.00;92102.44;5071517;28;20056;-72
2022/11/24 02:32:46;;;;;;;11.10;3.15;;;;;;;6.22;100.00;92108.91;5071423;28;20177;-72
2022/11/24 02:35:16;;;;;;;5.95;2.10;;;;;;;6.23;100.00;92100.25;5071568;28;20554;-72
2022/11/24 02:37:43;;;;;;;7.10;2.38;;;;;;;6.27;100.00;92100.59;5073672;28;20441;-72
2022/11/24 02:40:10;;;;;;;4.70;2.10;;;;;;;6.30;100.00;92102.75;5071322;28;20049;-72
2022/11/24 02:42:41;;;;;;;5.97;2.20;;;;;;;6.34;100.00;92106.41;5070606;28;20049;-72
2022/11/24 02:45:11;;;;;;;5.35;2.78;;;;;;;6.39;100.00;92106.56;5071566;28;20133;-72
2022/11/24 02:47:38;;;;;;;6.95;3.85;;;;;;;6.49;100.00;92110.41;5071444;28;20049;-72
2022/11/24 02:50:06;;;;;;;7.40;3.03;;;;;;;6.52;100.00;92107.41;5071506;28;20053;-72
2022/11/24 02:52:32;;;;;;;6.10;2.60;;;;;;;6.48;100.00;92106.31;5071279;28;20110;-72
2022/11/24 02:54:59;;;;;;;5.70;2.20;;;;;;;6.52;100.00;92104.88;5073275;28;20424;-72
2022/11/24 02:57:26;;;;;;;4.88;2.28;;;;;;;6.55;100.00;92109.56;5071172;28;20056;-72
2022/11/24 02:59:55;;;;;;;4.75;2.00;;;;;;;6.52;100.00;92099.78;5071353;28;20486;-73
2022/11/24 03:02:23;;;;;;;5.38;2.30;;;;;;;6.61;100.00;92108.72;5071102;28;20045;-73
2022/11/24 03:04:50;;;;;;;5.38;2.50;;;;;;;6.63;100.00;92099.06;5071236;28;20048;-73
2022/11/24 03:07:17;;;;;;;5.72;2.55;;;;;;;6.65;100.00;92099.66;5070711;28;20053;-72
2022/11/24 03:09:43;;;;;;;5.57;2.28;;;;;;;6.71;100.00;92103.09;5070613;28;20662;-73
2022/11/24 03:12:10;;;;;;;4.45;2.38;;;;;;;6.64;100.00;92093.00;5070494;28;20053;-73
2022/11/24 03:14:37;;;;;;;9.20;3.42;;;;;;;6.75;100.00;92111.91;5070631;28;20052;-73
2022/11/24 03:17:04;;;;;;;8.05;3.70;;;;;;;6.75;100.00;92101.69;5070470;28;20651;-73
2022/11/24 03:19:32;;;;;;;8.05;4.05;;;;;;;6.75;100.00;92109.34;5070619;28;20135;-73
2022/11/24 03:21:59;;;;;;;6.82;3.42;;;;;;;6.55;100.00;92117.22;5070550;28;20534;-73
2022/11/24 03:24:25;;;;;;;8.70;3.38;;;;;;;6.39;100.00;92121.09;5070699;28;20036;-73
2022/11/24 03:26:52;;;;;;;6.30;3.05;;;;;;;6.43;100.00;92113.81;5070746;28;20113;-73
2022/11/24 03:29:19;;;;;;;11.02;7.40;;;;;;;6.54;100.00;92118.22;5070600;28;20539;-73
2022/11/24 03:31:45;;;;;;;11.20;5.55;;;;;;;6.55;100.00;92117.22;5070607;28;20048;-73
2022/11/24 03:34:12;;;;;;;10.80;5.88;;;;;;;6.64;100.00;92127.94;5070364;28;20049;-73
2022/11/24 03:36:40;;;;;;;10.25;3.75;;;;;;;6.55;100.00;92104.47;5070411;28;20057;-72
2022/11/24 03:39:07;;;;;;;8.73;4.32;;;;;;;6.59;100.00;92109.91;5070207;28;20567;-72
2022/11/24 03:41:34;;;;;;;28.23;10.43;;;;;;;6.58;100.00;92119.34;5070464;28;20040;-73
2022/11/24 03:44:01;;;;;;;17.60;8.48;;;;;;;6.49;100.00;92123.16;5069932;28;20390;-73
2022/11/24 03:46:28;;;;;;;17.42;8.27;;;;;;;6.36;100.00;92117.22;5070141;28;20528;-73
2022/11/24 03:48:54;;;;;;;19.60;9.13;;;;;;;6.48;100.00;92126.72;5070635;28;20048;-72
2022/11/24 03:51:21;;;;;;;21.38;8.77;;;;;;;6.58;100.00;92123.66;5070019;28;20053;-72
2022/11/24 03:53:49;;;;;;;21.02;9.73;;;;;;;6.61;100.00;92126.56;5071891;28;20093;-72
2022/11/24 03:56:16;;;;;;;22.83;10.32;;;;;;;6.64;100.00;92131.28;5069977;28;20052;-72
2022/11/24 03:58:43;;;;;;;14.82;8.25;;;;;;;6.66;100.00;92136.94;5069988;28;20044;-72
2022/11/24 04:01:09;;;;;;;21.10;9.07;;;;;;;6.68;100.00;92137.50;5069768;28;20048;-72
2022/11/24 04:03:36;;;;;;;15.60;8.50;;;;;;;6.51;100.00;92137.28;5069857;28;20508;-72
2022/11/24 04:06:03;;;;;;;14.98;8.25;;;;;;;6.35;100.00;92130.94;5069517;28;20052;-72
2022/11/24 04:08:30;;;;;;;20.30;9.27;;;;;;;6.38;100.00;92142.47;5069963;28;20101;-72
2022/11/24 04:10:58;;;;;;;18.08;10.70;;;;;;;6.34;100.00;92149.78;5069560;28;20494;-72
2022/11/24 04:13:26;;;;;;;28.33;18.50;;;;;;;5.99;100.00;92148.47;5069430;28;20040;-72
2022/11/24 04:15:53;;;;;;;23.65;14.05;;;;;;;5.71;100.00;92138.66;5069734;28;20044;-72
2022/11/24 04:18:20;;;;;;;19.38;11.07;;;;;;;5.60;100.00;92153.63;5068694;28;20514;-72
2022/11/24 04:20:49;;;;;;;13.02;8.00;;;;;;;5.57;100.00;92159.13;5069524;28;20044;-72
2022/11/24 04:23:16;;;;;;;14.52;9.13;;;;;;;5.40;100.00;92166.47;5069752;28;20048;-73
2022/11/24 04:25:43;;;;;;;15.05;9.10;;;;;;;5.29;100.00;92160.25;5069509;28;20048;-73
2022/11/24 04:28:11;;;;;;;14.60;8.82;;;;;;;5.13;100.00;92168.34;5069260;28;20049;-73
2022/11/24 04:30:41;;;;;;;14.00;8.13;;;;;;;5.08;100.00;92168.94;5069047;28;20048;-73
2022/11/24 04:33:07;;;;;;;13.98;8.40;;;;;;;5.01;100.00;92174.06;5069138;28;20052;-73
2022/11/24 04:35:35;;;;;;;14.27;8.00;;;;;;;5.06;100.00;92181.09;5069557;28;20058;-73
2022/11/24 04:38:02;;;;;;;18.15;8.10;;;;;;;5.13;100.00;92169.09;5069215;28;20068;-72
2022/11/24 04:40:29;;;;;;;13.45;8.00;;;;;;;5.17;100.00;92177.13;5069484;28;20127;-72
2022/11/24 04:42:56;;;;;;;14.05;7.82;;;;;;;5.29;100.00;92170.44;5069096;28;20049;-73
2022/11/24 04:45:24;;;;;;;36.53;18.13;;;;;;;5.27;100.00;92171.63;5068767;28;20106;-73
2022/11/24 04:47:51;;;;;;;22.73;12.80;;;;;;;5.35;100.00;92167.06;5068775;28;20040;-73
2022/11/24 04:50:18;;;;;;;17.33;9.52;;;;;;;5.37;100.00;92171.19;5072050;28;20110;-73
2022/11/24 04:52:45;;;;;;;15.55;8.88;;;;;;;5.52;100.00;92183.63;5068770;28;20129;-73
2022/11/24 04:55:12;;;;;;;12.98;7.88;;;;;;;5.58;100.00;92188.72;5071526;28;20048;-72
2022/11/24 04:57:39;;;;;;;17.63;8.82;;;;;;;5.71;100.00;92194.72;5068872;28;20421;-73
2022/11/24 05:00:07;;;;;;;16.95;9.95;;;;;;;5.79;100.00;92201.34;5069198;28;20048;-73
2022/11/24 05:02:36;;;;;;;16.63;9.15;;;;;;;5.86;100.00;92192.66;5068900;28;20076;-73
2022/11/24 05:05:03;;;;;;;16.70;9.52;;;;;;;5.78;100.00;92207.44;5068260;28;20052;-72
2022/11/24 05:07:30;;;;;;;17.73;12.98;;;;;;;5.61;100.00;92205.34;5069273;28;20102;-73
2022/11/24 05:12:40;;;;;;;16.67;10.82;;;;;;;5.62;100.00;92215.31;5068565;28;20178;-73
2022/11/24 05:15:08;;;;;;;13.23;8.00;;;;;;;5.52;100.00;92202.25;5068548;28;20040;-73
2022/11/24 05:17:38;;;;;;;14.07;7.95;;;;;;;5.64;100.00;92217.66;5068756;28;20067;-72
2022/11/24 05:20:06;;;;;;;14.32;8.43;;;;;;;5.59;100.00;92217.50;5069163;28;20098;-72
2022/11/24 05:22:35;;;;;;;17.27;11.38;;;;;;;5.60;100.00;92217.31;5068464;28;20040;-72
2022/11/24 05:25:02;;;;;;;20.67;12.35;;;;;;;5.63;100.00;92221.22;5068416;28;20071;-73
2022/11/24 05:27:29;;;;;;;20.38;12.18;;;;;;;5.60;100.00;92219.84;5068537;28;20048;-73
2022/11/24 05:29:56;;;;;;;21.98;12.68;;;;;;;5.80;100.00;92230.94;5068874;28;20041;-74
2022/11/24 05:32:23;;;;;;;21.63;13.48;;;;;;;5.59;100.00;92189.47;5068665;28;20102;-74
2022/11/24 05:34:52;;;;;;;25.33;12.70;;;;;;;5.92;100.00;92233.63;5068601;28;20066;-73
2022/11/24 05:37:19;;;;;;;20.63;10.70;;;;;;;5.89;100.00;92233.03;5068634;28;20488;-73
2022/11/24 05:39:46;;;;;;;22.27;10.70;;;;;;;5.87;100.00;92240.09;5068701;28;20052;-73
2022/11/24 05:44:58;;;;;;;26.17;13.35;;;;;;;5.71;100.00;92241.38;5068518;28;20055;-73
2022/11/24 05:47:25;;;;;;;22.13;10.15;;;;;;;5.66;100.00;92241.19;5068449;28;20052;-73
2022/11/24 05:49:53;;;;;;;28.00;13.60;;;;;;;5.69;100.00;92240.00;5068755;28;20478;-73
2022/11/24 05:52:20;;;;;;;31.65;18.15;;;;;;;5.73;100.00;92247.03;5068312;28;20870;-74
2022/11/24 05:54:46;;;;;;;38.13;19.10;;;;;;;5.79;100.00;92245.41;5071184;28;20044;-74
2022/11/24 05:57:13;;;;;;;25.00;12.10;;;;;;;5.53;100.00;92205.56;5067755;28;20056;-74
2022/11/24 05:59:42;;;;;;;22.38;11.18;;;;;;;5.74;100.00;92240.94;5067823;28;20102;-73
2022/11/24 06:02:09;;;;;;;25.83;11.93;;;;;;;5.79;100.00;92242.09;5068557;28;20053;-74
2022/11/24 06:04:37;;;;;;;36.25;16.50;;;;;;;5.87;100.00;92241.84;5068568;28;20071;-74
2022/11/24 06:07:07;;;;;;;61.40;25.90;;;;;;;6.03;100.00;92247.50;5068144;28;20111;-73
2022/11/24 06:09:36;;;;;;;49.53;23.92;;;;;;;6.01;100.00;92233.16;5068206;28;20044;-73
2022/11/24 06:12:03;;;;;;;37.58;18.08;;;;;;;6.20;100.00;92255.44;5068270;28;20125;-73
2022/11/24 06:14:29;;;;;;;32.08;17.48;;;;;;;6.24;100.00;92249.72;5068077;28;20199;-73
2022/11/24 06:16:56;;;;;;;21.13;11.77;;;;;;;6.31;100.00;92251.44;5071857;28;20121;-73
2022/11/24 06:19:23;;;;;;;26.92;13.98;;;;;;;6.39;100.00;92253.75;5071988;28;20106;-73
2022/11/24 06:21:49;;;;;;;23.67;11.93;;;;;;;6.46;100.00;92263.88;5072022;28;20082;-73
2022/11/24 06:24:17;;;;;;;25.83;13.35;;;;;;;6.52;100.00;92257.94;5071672;28;20503;-73
2022/11/24 06:26:44;;;;;;;26.95;13.20;;;;;;;6.36;100.00;92233.75;5071846;28;20114;-73
2022/11/24 06:29:11;;;;;;;28.52;13.23;;;;;;;6.65;100.00;92269.81;5071906;28;20052;-74
2022/11/24 06:31:37;;;;;;;26.85;13.32;;;;;;;6.67;100.00;92266.09;5071480;28;20048;-73
2022/11/24 06:34:06;;;;;;;31.00;16.30;;;;;;;6.68;100.00;92272.75;5071589;28;20099;-74
2022/11/24 06:36:33;;;;;;;29.73;15.52;;;;;;;6.73;100.00;92274.69;5071644;28;20084;-73
2022/11/24 06:39:01;;;;;;;34.60;17.25;;;;;;;6.77;100.00;92277.59;5071242;28;20516;-73
2022/11/24 06:41:29;;;;;;;29.48;16.63;;;;;;;6.82;100.00;92285.41;5071375;28;20143;-73
2022/11/24 06:43:56;;;;;;;34.50;17.15;;;;;;;6.82;100.00;92283.63;5071415;28;20048;-73
2022/11/24 06:46:23;;;;;;;34.88;17.98;;;;;;;6.86;100.00;92291.66;5071429;28;20110;-73
2022/11/24 06:48:51;;;;;;;35.15;16.90;;;;;;;6.88;100.00;92294.00;5071227;28;20044;-74
2022/11/24 06:51:18;;;;;;;27.17;14.40;;;;;;;6.93;100.00;92292.38;5071060;28;20487;-73
2022/11/24 06:53:45;;;;;;;25.95;13.60;;;;;;;6.96;100.00;92293.75;5073835;28;20036;-74
2022/11/24 06:56:14;;;;;;;30.33;13.20;;;;;;;7.01;100.00;92304.09;5070924;28;20101;-73
2022/11/24 06:58:43;;;;;;;28.15;14.82;;;;;;;7.03;100.00;92307.22;5071134;28;20041;-73
2022/11/24 07:01:14;;;;;;;35.03;19.67;;;;;;;7.06;100.00;92301.72;5071230;28;20101;-73
2022/11/24 07:03:41;;;;;;;43.63;24.20;;;;;;;7.14;100.00;92305.78;5071021;28;20040;-73
2022/11/24 07:06:08;;;;;;;56.50;31.50;;;;;;;7.15;100.00;92303.97;5071264;28;20044;-73
2022/11/24 07:08:34;;;;;;;53.08;30.10;;;;;;;7.21;100.00;92311.59;5071089;28;20044;-73
2022/11/24 07:11:04;;;;;;;54.47;29.95;;;;;;;7.30;100.00;92311.31;5070872;28;20460;-73
2022/11/24 07:13:31;;;;;;;57.10;31.73;;;;;;;7.29;100.00;92307.97;5070972;28;20141;-73
2022/11/24 07:15:59;;;;;;;53.58;30.02;;;;;;;7.44;100.00;92319.63;5070906;28;20122;-74
2022/11/24 07:18:26;;;;;;;46.97;27.23;;;;;;;7.52;100.00;92326.22;5070643;28;20052;-74
2022/11/24 07:20:53;;;;;;;46.58;25.95;;;;;;;7.55;100.00;92320.69;5070390;28;20079;-74
2022/11/24 07:23:20;;;;;;;39.55;21.90;;;;;;;7.59;100.00;92332.06;5070611;28;20048;-74
2022/11/24 07:25:47;;;;;;;34.22;21.15;;;;;;;7.58;100.00;92333.03;5070444;28;20052;-74
2022/11/24 07:28:13;;;;;;;30.70;18.08;;;;;;;7.55;100.00;92333.47;5069886;28;20452;-74
2022/11/24 07:30:40;;;;;;;33.50;18.27;;;;;;;7.40;100.00;92334.59;5070299;28;20048;-74
2022/11/24 07:33:09;;;;;;;41.60;22.45;;;;;;;7.34;100.00;92335.44;5070539;28;20048;-74
2022/11/24 07:35:35;;;;;;;42.08;24.60;;;;;;;7.24;100.00;92345.34;5070654;28;20045;-74
2022/11/24 07:38:02;;;;;;;42.17;23.77;;;;;;;7.26;100.00;92349.25;5070063;28;20102;-74
2022/11/24 07:40:29;;;;;;;44.13;31.17;;;;;;;7.30;100.00;92347.06;5069900;28;20041;-73
2022/11/24 07:42:55;;;;;;;46.10;26.27;;;;;;;7.12;100.00;92346.03;5070241;28;20102;-74
2022/11/24 07:45:22;;;;;;;46.65;25.15;;;;;;;7.15;100.00;92353.28;5069813;28;20044;-73
2022/11/24 07:47:49;;;;;;;30.27;19.52;;;;;;;7.09;100.00;92347.25;5070301;28;20048;-73
2022/11/24 07:50:17;;;;;;;34.67;18.50;;;;;;;7.22;100.00;92354.00;5070353;28;20052;-73
2022/11/24 07:52:44;;;;;;;22.13;14.75;;;;;;;7.28;100.00;92352.41;5070202;28;20036;-74
2022/11/24 07:55:11;;;;;;;26.45;20.73;;;;;;;7.22;100.00;92353.22;5072430;28;20498;-74
2022/11/24 07:57:39;;;;;;;30.17;20.73;;;;;;;6.94;100.00;92359.53;5069691;28;20973;-74
2022/11/24 08:00:08;;;;;;;34.30;22.17;;;;;;;6.74;100.00;92373.22;5070109;28;20059;-73
2022/11/24 08:02:34;;;;;;;31.80;22.88;;;;;;;6.59;100.00;92363.31;5069763;28;20044;-73
2022/11/24 08:05:01;;;;;;;39.13;25.48;;;;;;;6.53;100.00;92371.78;5069744;28;20044;-74
2022/11/24 08:07:29;;;;;;;38.90;23.25;;;;;;;6.53;100.00;92376.91;5069718;28;20052;-74
2022/11/24 08:09:56;;;;;;;39.80;24.50;;;;;;;6.60;100.00;92379.38;5069647;28;20045;-74
2022/11/24 08:12:23;;;;;;;38.33;25.52;;;;;;;6.74;100.00;92378.34;5069553;28;20056;-74
2022/11/24 08:14:50;;;;;;;34.90;20.27;;;;;;;6.68;100.00;92382.47;5069855;28;20049;-73
2022/11/24 08:17:17;;;;;;;26.20;17.00;;;;;;;6.45;100.00;92383.03;5069454;28;20052;-74
2022/11/24 08:19:43;;;;;;;22.70;14.38;;;;;;;6.49;100.00;92383.38;5069355;28;20425;-74
2022/11/24 08:22:11;;;;;;;17.67;10.73;;;;;;;6.53;100.00;92384.56;5069678;28;20048;-74
2022/11/24 08:24:45;;;;;;;23.55;11.35;;;;;;;6.44;100.00;92388.31;5069322;28;20044;-74
2022/11/24 08:27:11;;;;;;;17.83;9.65;;;;;;;6.52;100.00;92388.88;5069611;28;20056;-74
2022/11/24 08:29:38;;;;;;;18.95;9.82;;;;;;;6.31;100.00;92395.06;5072019;28;20703;-74
2022/11/24 08:32:05;;;;;;;17.83;10.02;;;;;;;6.40;100.00;92406.56;5069623;28;20090;-74
2022/11/24 08:34:32;;;;;;;16.38;9.38;;;;;;;6.44;100.00;92394.22;5095583;28;20051;-74
2022/11/24 08:36:59;;;;;;;11.30;8.43;;;;;;;6.52;100.00;92408.47;5110244;28;20040;-74
2022/11/24 08:39:25;;;;;;;9.20;6.70;;;;;;;6.06;100.00;92366.91;5109426;28;20056;-74
2022/11/24 08:41:53;;;;;;;10.82;7.40;;;;;;;6.35;100.00;92414.06;5110443;28;20043;-74
2022/11/24 08:44:20;;;;;;;8.50;7.07;;;;;;;6.15;100.00;92417.47;5110186;28;20398;-74
2022/11/24 08:46:47;;;;;;;13.75;10.80;;;;;;;5.94;100.00;92421.06;5081551;28;20082;-74
2022/11/24 08:49:14;;;;;;;11.57;8.20;;;;;;;5.75;100.00;92409.94;5110366;28;20100;-74
2022/11/24 08:51:42;;;;;;;11.43;8.00;;;;;;;5.68;100.00;92432.88;5110066;28;20142;-74
2022/11/24 08:54:12;;;;;;;11.13;8.70;;;;;;;5.75;100.00;92430.31;5096450;28;20053;-74
2022/11/24 08:56:39;;;;;;;14.73;11.50;;;;;;;5.89;100.00;92436.94;5096416;28;20059;-74
2022/11/24 08:59:07;;;;;;;10.55;8.02;;;;;;;5.70;100.00;92443.63;5110130;28;20378;-74
2022/11/24 09:01:34;;;;;;;11.10;7.68;;;;;;;5.64;100.00;92449.53;5110189;28;20459;-74
2022/11/24 09:04:00;;;;;;;11.35;8.35;;;;;;;5.57;100.00;92448.75;5109862;28;20077;-74
2022/11/24 09:06:29;;;;;;;10.90;8.45;;;;;;;5.58;100.00;92448.56;5109804;28;20096;-74
2022/11/24 09:08:57;;;;;;;9.80;7.00;;;;;;;5.57;100.00;92458.94;5110067;28;20058;-74
2022/11/24 09:11:25;;;;;;;8.13;6.32;;;;;;;5.45;100.00;92467.19;5109646;28;20516;-74
2022/11/24 09:13:53;;;;;;;7.90;6.13;;;;;;;5.13;100.00;92448.38;5109863;28;20117;-74
2022/11/24 09:16:24;;;;;;;7.57;6.72;;;;;;;5.18;100.00;92467.16;5110173;28;20426;-74
2022/11/24 09:18:55;;;;;;;9.60;6.57;;;;;;;5.11;100.00;92471.47;5109849;28;20386;-74
2022/11/24 09:21:22;;;;;;;9.95;6.38;;;;;;;4.74;100.00;92471.78;5109584;28;20104;-74
2022/11/24 09:23:51;;;;;;;9.70;6.28;;;;;;;4.86;100.00;92477.09;5109976;28;20052;-73
2022/11/24 09:26:19;;;;;;;8.80;7.00;;;;;;;4.70;100.00;92482.53;5109551;28;20497;-74
2022/11/24 09:28:47;;;;;;;8.98;7.10;;;;;;;4.59;100.00;92486.41;5109313;28;20100;-74
2022/11/24 09:31:16;;;;;;;5.40;4.57;;;;;;;4.61;100.00;92476.81;5109591;28;20040;-74
2022/11/24 09:33:45;;;;;;;5.82;4.57;;;;;;;4.52;100.00;92473.66;5109584;28;20447;-74
2022/11/24 09:36:12;;;;;;;7.03;4.60;;;;;;;4.55;100.00;92486.03;5109796;28;20047;-74
2022/11/24 09:38:39;;;;;;;5.80;4.68;;;;;;;4.52;100.00;92484.63;5109466;28;20105;-73
2022/11/24 09:41:26;;;;;;;6.15;5.03;;;;;;;4.67;100.00;92486.25;5109729;28;20456;-74
2022/11/24 09:44:01;;;;;;;6.25;4.63;;;;;;;4.75;100.00;92481.00;5109807;28;20052;-73
2022/11/24 09:46:31;;;;;;;4.47;3.47;;;;;;;4.49;100.00;92487.56;5109417;28;20048;-73
2022/11/24 09:49:02;;;;;;;4.45;3.30;;;;;;;4.68;100.00;92487.84;5109465;28;20104;-73
2022/11/24 09:51:32;;;;;;;5.18;3.17;;;;;;;4.50;100.00;92480.72;5112633;28;20052;-73
2022/11/24 09:54:03;;;;;;;6.07;4.60;;;;;;;4.63;100.00;92493.47;5102541;28;20110;-73
2022/11/24 09:56:34;;;;;;;4.28;3.65;;;;;;;4.65;100.00;92488.19;5097368;28;20060;-73
2022/11/24 09:59:05;;;;;;;4.53;3.28;;;;;;;4.61;100.00;92495.44;5113358;28;20451;-73
2022/11/24 10:01:35;;;;;;;5.05;3.58;;;;;;;4.60;100.00;92498.97;5113337;28;20051;-73
2022/11/24 10:04:11;;;;;;;4.38;3.00;;;;;;;4.65;100.00;92491.53;5113209;28;20408;-73
2022/11/24 10:06:44;;;;;;;5.90;3.75;;;;;;;4.69;100.00;92499.56;5113244;28;20105;-73
2022/11/24 10:09:23;;;;;;;5.45;3.78;;;;;;;4.67;100.00;92492.13;5113298;28;20116;-73
2022/11/24 10:11:58;;;;;;;7.95;5.30;;;;;;;4.65;100.00;92496.63;5095044;28;20048;-74
2022/11/24 10:15:00;;;;;;;4.28;2.72;;;;;;;4.61;100.00;92505.59;5098920;28;20050;-73
2022/11/24 10:17:41;;;;;;;3.97;3.05;;;;;;;4.47;100.00;92504.78;5084552;28;20458;-73
2022/11/24 10:20:18;;;;;;;4.13;2.92;;;;;;;4.46;100.00;92505.75;5113020;28;20052;-73
2022/11/24 10:22:58;;;;;;;4.78;3.50;;;;;;;4.37;100.00;92511.97;5112976;28;20125;-73
2022/11/24 10:25:26;;;;;;;4.00;3.28;;;;;;;4.22;100.00;92512.09;5112815;28;20044;-73
2022/11/24 10:27:58;;;;;;;5.40;3.50;;;;;;;3.77;100.00;92482.69;5113164;28;20047;-73
2022/11/24 10:30:26;;;;;;;4.43;3.42;;;;;;;3.73;100.00;92512.78;5112678;28;20070;-73
2022/11/24 10:32:57;;;;;;;4.80;3.70;;;;;;;3.77;100.00;92517.47;5112874;28;20051;-73
2022/11/24 10:35:30;;;;;;;7.13;5.88;;;;;;;3.73;100.00;92502.63;5112159;28;20391;-73
2022/11/24 10:38:07;;;;;;;7.45;5.32;;;;;;;3.72;100.00;92516.28;5112741;28;20073;-73
2022/11/24 10:40:38;;;;;;;13.60;8.38;;;;;;;3.58;100.00;92522.22;5112350;28;20539;-73
2022/11/24 10:43:09;;;;;;;12.60;8.63;;;;;;;3.37;100.00;92513.66;5112456;28;20043;-73
2022/11/24 10:45:38;;;;;;;6.75;4.82;;;;;;;3.47;100.00;92526.03;5112494;28;20040;-73
2022/11/24 10:48:08;;;;;;;7.50;4.38;;;;;;;3.54;100.00;92516.72;5112218;28;20421;-73
2022/11/24 10:50:40;;;;;;;4.38;3.17;;;;;;;3.54;100.00;92516.72;5112449;28;20050;-73
2022/11/24 10:53:16;;;;;;;5.10;3.67;;;;;;;3.76;100.00;92514.16;5101490;28;20044;-73
2022/11/24 10:56:03;;;;;;;;;;;;;;;3.81;100.00;92521.22;5077827;28;20052;-73
2022/11/24 10:58:32;;;;;;;13.55;7.75;;;;;;;3.92;100.00;92515.63;5106888;28;19942;-73
2022/11/24 11:01:00;;;;;;;4.75;3.90;;;;;;;3.94;100.00;92528.91;5112335;28;20116;-73
2022/11/24 11:03:31;;;;;;;4.95;3.85;;;;;;;4.13;100.00;92526.72;5111206;28;20077;-74
2022/11/24 11:06:09;;;;;;;4.72;3.92;;;;;;;4.06;100.00;92530.94;5111968;28;20079;-73
2022/11/24 11:08:36;;;;;;;5.22;3.90;;;;;;;4.18;100.00;92531.22;5112208;28;20051;-73
2022/11/24 11:11:22;;;;;;;4.18;3.40;;;;;;;4.17;100.00;92537.28;5111706;28;20096;-73
2022/11/24 11:13:54;;;;;;;7.03;4.35;;;;;;;4.08;100.00;92526.47;5111727;28;20083;-73
2022/11/24 11:16:36;;;;;;;7.72;5.85;;;;;;;4.21;100.00;92535.94;5112078;28;20066;-73
2022/11/24 11:19:04;;;;;;;14.25;8.00;;;;;;;4.17;100.00;92532.19;5111586;28;20051;-73
2022/11/24 11:21:37;;;;;;;10.05;6.32;;;;;;;3.94;100.00;92538.31;5111653;28;20100;-73
2022/11/24 11:24:14;;;;;;;4.95;3.28;;;;;;;3.71;100.00;92537.56;5097454;28;20580;-73
2022/11/24 11:26:41;;;;;;;9.75;7.30;;;;;;;3.94;100.00;92539.09;5111475;28;20048;-73
2022/11/24 11:29:18;;;;;;;7.10;5.25;;;;;;;3.95;100.00;92543.22;5111783;28;20083;-73
2022/11/24 11:31:57;;;;;;;6.57;4.68;;;;;;;3.90;100.00;92532.81;5111732;28;20047;-73
2022/11/24 11:34:24;;;;;;;7.43;5.40;;;;;;;3.80;100.00;92545.81;5111411;28;20039;-73
2022/11/24 11:36:54;;;;;;;12.15;8.43;;;;;;;3.80;100.00;92519.66;5094610;28;20043;-73